sensor_id;sensor_type;location;lat;lon;timestamp;temperature;humidity
18888;DHT22;9576;47.792;9.628;2023-07-13T00:02:30;17.90;99.90
18888;DHT22;9576;47.792;9.628;2023-07-13T00:05:34;17.90;99.90
18888;DHT22;9576;47.792;9.628;2023-07-13T00:08:36;17.90;99.90
18888;DHT22;9576;47.792;9.628;2023-07-13T00:11:38;17.90;99.90
18888;DHT22;9576;47.792;9.628;2023-07-13T00:14:40;17.90;99.90
18888;DHT22;9576;47.792;9.628;2023-07-13T00:17:42;17.90;99.90
18888;DHT22;9576;47.792;9.628;2023-07-13T00:20:47;17.90;99.90
18888;DHT22;9576;47.792;9.628;2023-07-13T00:23:49;17.90;99.90
18888;DHT22;9576;47.792;9.628;2023-07-13T00:26:51;17.90;99.90
18888;DHT22;9576;47.792;9.628;2023-07-13T00:29:53;18.00;99.90
18888;DHT22;9576;47.792;9.628;2023-07-13T00:32:54;18.00;99.90
18888;DHT22;9576;47.792;9.628;2023-07-13T00:35:58;18.00;99.90
18888;DHT22;9576;47.792;9.628;2023-07-13T00:39:00;18.00;99.90
18888;DHT22;9576;47.792;9.628;2023-07-13T00:42:03;18.10;99.90
18888;DHT22;9576;47.792;9.628;2023-07-13T00:45:07;18.10;99.90
18888;DHT22;9576;47.792;9.628;2023-07-13T00:48:32;18.10;99.90
18888;DHT22;9576;47.792;9.628;2023-07-13T00:51:40;18.10;99.90
18888;DHT22;9576;47.792;9.628;2023-07-13T00:54:45;18.10;99.90
18888;DHT22;9576;47.792;9.628;2023-07-13T00:57:48;18.20;99.90
18888;DHT22;9576;47.792;9.628;2023-07-13T01:00:51;18.20;99.90
18888;DHT22;9576;47.792;9.628;2023-07-13T01:03:53;18.20;99.90
18888;DHT22;9576;47.792;9.628;2023-07-13T01:06:57;18.20;99.90
18888;DHT22;9576;47.792;9.628;2023-07-13T01:09:59;18.20;99.90
18888;DHT22;9576;47.792;9.628;2023-07-13T01:13:01;18.20;99.90
18888;DHT22;9576;47.792;9.628;2023-07-13T01:16:12;18.10;99.90
18888;DHT22;9576;47.792;9.628;2023-07-13T01:19:26;18.10;99.90
18888;DHT22;9576;47.792;9.628;2023-07-13T01:22:31;18.20;99.90
18888;DHT22;9576;47.792;9.628;2023-07-13T01:25:34;18.20;99.90
18888;DHT22;9576;47.792;9.628;2023-07-13T01:28:37;18.20;99.90
18888;DHT22;9576;47.792;9.628;2023-07-13T01:31:39;18.20;99.90
18888;DHT22;9576;47.792;9.628;2023-07-13T01:34:41;18.20;99.90
18888;DHT22;9576;47.792;9.628;2023-07-13T01:37:46;18.10;99.90
18888;DHT22;9576;47.792;9.628;2023-07-13T01:40:48;18.10;99.90
18888;DHT22;9576;47.792;9.628;2023-07-13T01:43:50;18.00;99.90
18888;DHT22;9576;47.792;9.628;2023-07-13T01:46:51;18.00;99.90
18888;DHT22;9576;47.792;9.628;2023-07-13T01:49:53;18.10;99.90
18888;DHT22;9576;47.792;9.628;2023-07-13T01:52:57;18.20;99.90
18888;DHT22;9576;47.792;9.628;2023-07-13T01:55:58;18.20;99.90
18888;DHT22;9576;47.792;9.628;2023-07-13T01:59:00;18.20;99.90
18888;DHT22;9576;47.792;9.628;2023-07-13T02:02:02;18.30;99.90
18888;DHT22;9576;47.792;9.628;2023-07-13T02:05:05;18.20;99.90
18888;DHT22;9576;47.792;9.628;2023-07-13T02:08:09;18.20;99.90
18888;DHT22;9576;47.792;9.628;2023-07-13T02:11:11;18.20;99.90
18888;DHT22;9576;47.792;9.628;2023-07-13T02:14:13;18.20;99.90
18888;DHT22;9576;47.792;9.628;2023-07-13T02:17:16;18.20;99.90
18888;DHT22;9576;47.792;9.628;2023-07-13T02:20:18;18.30;99.90
18888;DHT22;9576;47.792;9.628;2023-07-13T02:23:21;18.30;99.90
18888;DHT22;9576;47.792;9.628;2023-07-13T02:26:23;18.30;99.90
18888;DHT22;9576;47.792;9.628;2023-07-13T02:29:25;18.30;99.90
18888;DHT22;9576;47.792;9.628;2023-07-13T02:32:27;18.30;99.90
18888;DHT22;9576;47.792;9.628;2023-07-13T02:35:29;18.30;99.90
18888;DHT22;9576;47.792;9.628;2023-07-13T02:38:32;18.40;99.90
18888;DHT22;9576;47.792;9.628;2023-07-13T02:41:35;18.30;99.90
18888;DHT22;9576;47.792;9.628;2023-07-13T02:44:37;18.30;99.90
18888;DHT22;9576;47.792;9.628;2023-07-13T02:47:40;18.30;99.90
18888;DHT22;9576;47.792;9.628;2023-07-13T02:50:44;18.40;99.90
18888;DHT22;9576;47.792;9.628;2023-07-13T02:53:47;18.30;99.90
18888;DHT22;9576;47.792;9.628;2023-07-13T02:56:49;18.10;99.90
18888;DHT22;9576;47.792;9.628;2023-07-13T02:59:51;18.00;99.90
18888;DHT22;9576;47.792;9.628;2023-07-13T03:02:53;18.00;99.90
18888;DHT22;9576;47.792;9.628;2023-07-13T03:05:59;18.00;99.90
18888;DHT22;9576;47.792;9.628;2023-07-13T03:09:04;18.10;99.90
18888;DHT22;9576;47.792;9.628;2023-07-13T03:12:06;18.00;99.90
18888;DHT22;9576;47.792;9.628;2023-07-13T03:15:09;18.10;99.90
18888;DHT22;9576;47.792;9.628;2023-07-13T03:18:11;18.10;99.90
18888;DHT22;9576;47.792;9.628;2023-07-13T03:21:13;18.20;99.90
18888;DHT22;9576;47.792;9.628;2023-07-13T03:24:16;18.20;99.90
18888;DHT22;9576;47.792;9.628;2023-07-13T03:27:18;18.20;99.90
18888;DHT22;9576;47.792;9.628;2023-07-13T03:30:20;18.20;99.90
18888;DHT22;9576;47.792;9.628;2023-07-13T03:33:22;18.10;99.90
18888;DHT22;9576;47.792;9.628;2023-07-13T03:36:26;18.00;99.90
18888;DHT22;9576;47.792;9.628;2023-07-13T03:39:30;17.90;99.90
18888;DHT22;9576;47.792;9.628;2023-07-13T03:42:32;18.00;99.90
18888;DHT22;9576;47.792;9.628;2023-07-13T03:45:34;18.10;99.90
18888;DHT22;9576;47.792;9.628;2023-07-13T03:48:36;18.10;99.90
18888;DHT22;9576;47.792;9.628;2023-07-13T03:51:40;18.20;99.90
18888;DHT22;9576;47.792;9.628;2023-07-13T03:54:43;18.20;99.90
18888;DHT22;9576;47.792;9.628;2023-07-13T03:57:45;18.30;99.90
18888;DHT22;9576;47.792;9.628;2023-07-13T04:00:48;18.20;99.90
18888;DHT22;9576;47.792;9.628;2023-07-13T04:03:51;18.20;99.90
18888;DHT22;9576;47.792;9.628;2023-07-13T04:06:53;18.30;99.90
18888;DHT22;9576;47.792;9.628;2023-07-13T04:09:56;18.30;99.90
18888;DHT22;9576;47.792;9.628;2023-07-13T04:12:58;18.30;99.90
18888;DHT22;9576;47.792;9.628;2023-07-13T04:16:00;18.30;99.90
18888;DHT22;9576;47.792;9.628;2023-07-13T04:19:02;18.20;99.90
18888;DHT22;9576;47.792;9.628;2023-07-13T04:22:05;18.20;99.90
18888;DHT22;9576;47.792;9.628;2023-07-13T04:25:08;18.30;99.90
18888;DHT22;9576;47.792;9.628;2023-07-13T04:28:10;18.30;99.90
18888;DHT22;9576;47.792;9.628;2023-07-13T04:31:12;18.30;99.90
18888;DHT22;9576;47.792;9.628;2023-07-13T04:34:14;18.40;99.90
18888;DHT22;9576;47.792;9.628;2023-07-13T04:37:17;18.40;99.90
18888;DHT22;9576;47.792;9.628;2023-07-13T04:40:20;18.40;99.90
18888;DHT22;9576;47.792;9.628;2023-07-13T04:43:22;18.30;99.90
18888;DHT22;9576;47.792;9.628;2023-07-13T04:46:24;18.30;99.90
18888;DHT22;9576;47.792;9.628;2023-07-13T04:49:26;18.30;99.90
18888;DHT22;9576;47.792;9.628;2023-07-13T04:52:28;18.30;99.90
18888;DHT22;9576;47.792;9.628;2023-07-13T04:55:31;18.40;99.90
18888;DHT22;9576;47.792;9.628;2023-07-13T04:58:34;18.40;99.90
18888;DHT22;9576;47.792;9.628;2023-07-13T05:01:36;18.40;99.90
18888;DHT22;9576;47.792;9.628;2023-07-13T05:04:37;18.50;99.90
18888;DHT22;9576;47.792;9.628;2023-07-13T05:07:39;18.60;99.90
18888;DHT22;9576;47.792;9.628;2023-07-13T05:10:43;18.70;99.90
18888;DHT22;9576;47.792;9.628;2023-07-13T05:13:44;18.80;99.90
18888;DHT22;9576;47.792;9.628;2023-07-13T05:16:46;18.80;99.90
18888;DHT22;9576;47.792;9.628;2023-07-13T05:19:48;18.90;99.90
18888;DHT22;9576;47.792;9.628;2023-07-13T05:22:50;19.00;99.90
18888;DHT22;9576;47.792;9.628;2023-07-13T05:25:53;19.00;99.90
18888;DHT22;9576;47.792;9.628;2023-07-13T05:28:55;19.00;99.90
18888;DHT22;9576;47.792;9.628;2023-07-13T05:31:57;19.10;99.90
18888;DHT22;9576;47.792;9.628;2023-07-13T05:34:59;19.10;99.90
18888;DHT22;9576;47.792;9.628;2023-07-13T05:38:01;19.20;99.90
18888;DHT22;9576;47.792;9.628;2023-07-13T05:41:04;19.30;99.90
18888;DHT22;9576;47.792;9.628;2023-07-13T05:44:06;19.40;99.90
18888;DHT22;9576;47.792;9.628;2023-07-13T05:47:08;19.50;99.90
18888;DHT22;9576;47.792;9.628;2023-07-13T05:50:10;19.60;99.90
18888;DHT22;9576;47.792;9.628;2023-07-13T05:53:12;19.70;99.90
18888;DHT22;9576;47.792;9.628;2023-07-13T05:56:15;19.70;99.90
18888;DHT22;9576;47.792;9.628;2023-07-13T05:59:18;19.80;99.90
18888;DHT22;9576;47.792;9.628;2023-07-13T06:02:20;19.90;99.90
18888;DHT22;9576;47.792;9.628;2023-07-13T06:05:22;19.90;99.90
18888;DHT22;9576;47.792;9.628;2023-07-13T06:08:23;20.00;99.90
18888;DHT22;9576;47.792;9.628;2023-07-13T06:11:27;20.00;99.90
18888;DHT22;9576;47.792;9.628;2023-07-13T06:14:30;20.00;99.90
18888;DHT22;9576;47.792;9.628;2023-07-13T06:17:32;20.00;99.90
18888;DHT22;9576;47.792;9.628;2023-07-13T06:20:34;20.10;99.90
18888;DHT22;9576;47.792;9.628;2023-07-13T06:23:36;20.00;99.90
18888;DHT22;9576;47.792;9.628;2023-07-13T06:26:40;20.10;99.90
18888;DHT22;9576;47.792;9.628;2023-07-13T06:29:41;20.10;99.90
18888;DHT22;9576;47.792;9.628;2023-07-13T06:32:45;20.10;99.90
18888;DHT22;9576;47.792;9.628;2023-07-13T06:35:47;20.10;99.90
18888;DHT22;9576;47.792;9.628;2023-07-13T06:38:49;20.10;99.90
18888;DHT22;9576;47.792;9.628;2023-07-13T06:41:52;20.10;99.90
18888;DHT22;9576;47.792;9.628;2023-07-13T06:44:54;20.10;99.90
18888;DHT22;9576;47.792;9.628;2023-07-13T06:47:56;20.10;99.90
18888;DHT22;9576;47.792;9.628;2023-07-13T06:50:58;20.10;99.90
18888;DHT22;9576;47.792;9.628;2023-07-13T06:54:00;20.00;99.90
18888;DHT22;9576;47.792;9.628;2023-07-13T06:57:04;20.00;99.90
18888;DHT22;9576;47.792;9.628;2023-07-13T07:00:07;19.90;99.90
18888;DHT22;9576;47.792;9.628;2023-07-13T07:03:10;19.90;99.90
18888;DHT22;9576;47.792;9.628;2023-07-13T07:06:15;19.70;99.90
18888;DHT22;9576;47.792;9.628;2023-07-13T07:09:17;19.80;99.90
18888;DHT22;9576;47.792;9.628;2023-07-13T07:12:20;19.90;99.90
18888;DHT22;9576;47.792;9.628;2023-07-13T07:15:22;20.00;99.90
18888;DHT22;9576;47.792;9.628;2023-07-13T07:18:24;20.00;99.90
18888;DHT22;9576;47.792;9.628;2023-07-13T07:21:26;20.10;99.90
18888;DHT22;9576;47.792;9.628;2023-07-13T07:24:28;20.20;99.90
18888;DHT22;9576;47.792;9.628;2023-07-13T07:27:32;20.20;99.90
18888;DHT22;9576;47.792;9.628;2023-07-13T07:30:34;20.00;99.90
18888;DHT22;9576;47.792;9.628;2023-07-13T07:33:36;20.10;99.90
18888;DHT22;9576;47.792;9.628;2023-07-13T07:36:38;20.10;99.90
18888;DHT22;9576;47.792;9.628;2023-07-13T07:39:40;20.20;99.90
18888;DHT22;9576;47.792;9.628;2023-07-13T07:42:44;20.30;99.90
18888;DHT22;9576;47.792;9.628;2023-07-13T07:45:46;20.40;99.90
18888;DHT22;9576;47.792;9.628;2023-07-13T07:48:48;20.50;99.90
18888;DHT22;9576;47.792;9.628;2023-07-13T07:51:51;20.70;99.90
18888;DHT22;9576;47.792;9.628;2023-07-13T07:54:53;20.70;99.90
18888;DHT22;9576;47.792;9.628;2023-07-13T07:57:56;20.80;99.90
18888;DHT22;9576;47.792;9.628;2023-07-13T08:01:05;20.90;99.90
18888;DHT22;9576;47.792;9.628;2023-07-13T08:04:07;20.90;99.90
18888;DHT22;9576;47.792;9.628;2023-07-13T08:07:10;21.00;99.90
18888;DHT22;9576;47.792;9.628;2023-07-13T08:10:11;21.10;99.90
18888;DHT22;9576;47.792;9.628;2023-07-13T08:13:15;21.20;99.90
18888;DHT22;9576;47.792;9.628;2023-07-13T08:16:17;21.10;99.90
18888;DHT22;9576;47.792;9.628;2023-07-13T08:19:18;21.10;99.90
18888;DHT22;9576;47.792;9.628;2023-07-13T08:22:20;21.10;99.90
18888;DHT22;9576;47.792;9.628;2023-07-13T08:25:22;21.10;99.90
18888;DHT22;9576;47.792;9.628;2023-07-13T08:28:26;21.10;99.90
18888;DHT22;9576;47.792;9.628;2023-07-13T08:31:27;21.10;99.90
18888;DHT22;9576;47.792;9.628;2023-07-13T08:34:29;21.20;99.90
18888;DHT22;9576;47.792;9.628;2023-07-13T08:37:31;21.20;99.90
18888;DHT22;9576;47.792;9.628;2023-07-13T08:40:33;21.20;99.90
18888;DHT22;9576;47.792;9.628;2023-07-13T08:43:37;21.20;99.90
18888;DHT22;9576;47.792;9.628;2023-07-13T08:46:40;21.30;99.90
18888;DHT22;9576;47.792;9.628;2023-07-13T08:49:44;21.40;99.90
18888;DHT22;9576;47.792;9.628;2023-07-13T08:52:46;21.60;99.90
18888;DHT22;9576;47.792;9.628;2023-07-13T08:55:52;21.60;99.90
18888;DHT22;9576;47.792;9.628;2023-07-13T08:59:02;21.70;99.90
18888;DHT22;9576;47.792;9.628;2023-07-13T09:02:26;21.80;99.90
18888;DHT22;9576;47.792;9.628;2023-07-13T09:05:31;21.90;99.90
18888;DHT22;9576;47.792;9.628;2023-07-13T09:08:46;22.00;99.90
18888;DHT22;9576;47.792;9.628;2023-07-13T09:11:52;21.90;99.90
18888;DHT22;9576;47.792;9.628;2023-07-13T09:14:59;21.60;99.90
18888;DHT22;9576;47.792;9.628;2023-07-13T09:18:10;21.60;99.90
18888;DHT22;9576;47.792;9.628;2023-07-13T09:21:17;21.50;99.90
18888;DHT22;9576;47.792;9.628;2023-07-13T09:24:31;21.50;99.90
18888;DHT22;9576;47.792;9.628;2023-07-13T09:27:39;21.60;99.90
18888;DHT22;9576;47.792;9.628;2023-07-13T09:30:49;21.80;99.90
18888;DHT22;9576;47.792;9.628;2023-07-13T09:33:53;22.00;99.90
18888;DHT22;9576;47.792;9.628;2023-07-13T09:36:55;22.00;99.90
18888;DHT22;9576;47.792;9.628;2023-07-13T09:39:58;22.20;99.90
18888;DHT22;9576;47.792;9.628;2023-07-13T09:43:01;22.30;99.90
18888;DHT22;9576;47.792;9.628;2023-07-13T09:46:20;21.90;99.90
18888;DHT22;9576;47.792;9.628;2023-07-13T09:49:24;22.00;99.90
18888;DHT22;9576;47.792;9.628;2023-07-13T09:52:27;21.70;99.90
18888;DHT22;9576;47.792;9.628;2023-07-13T09:55:31;21.40;99.90
18888;DHT22;9576;47.792;9.628;2023-07-13T09:58:35;21.50;99.90
18888;DHT22;9576;47.792;9.628;2023-07-13T10:01:38;21.40;99.90
18888;DHT22;9576;47.792;9.628;2023-07-13T10:04:40;21.40;99.90
18888;DHT22;9576;47.792;9.628;2023-07-13T10:07:44;21.40;99.90
18888;DHT22;9576;47.792;9.628;2023-07-13T10:10:47;21.30;99.90
18888;DHT22;9576;47.792;9.628;2023-07-13T10:13:55;21.30;99.90
18888;DHT22;9576;47.792;9.628;2023-07-13T10:17:00;21.30;99.90
18888;DHT22;9576;47.792;9.628;2023-07-13T10:20:04;21.40;99.90
18888;DHT22;9576;47.792;9.628;2023-07-13T10:23:17;21.60;99.90
18888;DHT22;9576;47.792;9.628;2023-07-13T10:26:26;21.90;99.90
18888;DHT22;9576;47.792;9.628;2023-07-13T10:29:32;22.10;99.90
18888;DHT22;9576;47.792;9.628;2023-07-13T10:32:38;22.20;99.90
18888;DHT22;9576;47.792;9.628;2023-07-13T10:35:42;22.00;99.90
18888;DHT22;9576;47.792;9.628;2023-07-13T10:38:47;22.00;99.90
18888;DHT22;9576;47.792;9.628;2023-07-13T10:41:55;22.10;99.90
18888;DHT22;9576;47.792;9.628;2023-07-13T10:44:59;22.20;99.90
18888;DHT22;9576;47.792;9.628;2023-07-13T10:48:04;22.00;99.90
18888;DHT22;9576;47.792;9.628;2023-07-13T10:51:09;22.00;99.90
18888;DHT22;9576;47.792;9.628;2023-07-13T10:54:16;22.10;99.90
18888;DHT22;9576;47.792;9.628;2023-07-13T10:57:20;22.20;99.90
18888;DHT22;9576;47.792;9.628;2023-07-13T11:00:22;22.20;99.90
18888;DHT22;9576;47.792;9.628;2023-07-13T11:03:28;22.10;99.90
18888;DHT22;9576;47.792;9.628;2023-07-13T11:06:34;21.90;99.90
18888;DHT22;9576;47.792;9.628;2023-07-13T11:09:40;21.90;99.90
18888;DHT22;9576;47.792;9.628;2023-07-13T11:12:52;21.90;99.90
18888;DHT22;9576;47.792;9.628;2023-07-13T11:15:55;21.80;99.90
18888;DHT22;9576;47.792;9.628;2023-07-13T11:19:27;21.70;99.90
18888;DHT22;9576;47.792;9.628;2023-07-13T11:22:44;21.60;99.90
18888;DHT22;9576;47.792;9.628;2023-07-13T11:25:48;21.90;99.90
18888;DHT22;9576;47.792;9.628;2023-07-13T11:28:50;22.20;99.90
18888;DHT22;9576;47.792;9.628;2023-07-13T11:31:54;22.50;99.90
18888;DHT22;9576;47.792;9.628;2023-07-13T11:34:58;22.80;99.90
18888;DHT22;9576;47.792;9.628;2023-07-13T11:38:01;23.10;99.90
18888;DHT22;9576;47.792;9.628;2023-07-13T11:41:06;23.50;99.90
18888;DHT22;9576;47.792;9.628;2023-07-13T11:44:11;23.80;99.90
18888;DHT22;9576;47.792;9.628;2023-07-13T11:47:18;23.90;99.90
18888;DHT22;9576;47.792;9.628;2023-07-13T11:50:24;24.10;99.90
18888;DHT22;9576;47.792;9.628;2023-07-13T11:53:28;24.20;99.90
18888;DHT22;9576;47.792;9.628;2023-07-13T11:56:31;24.50;99.90
18888;DHT22;9576;47.792;9.628;2023-07-13T11:59:39;25.00;99.90
18888;DHT22;9576;47.792;9.628;2023-07-13T12:02:44;25.60;99.90
18888;DHT22;9576;47.792;9.628;2023-07-13T12:09:11;25.70;99.90
18888;DHT22;9576;47.792;9.628;2023-07-13T12:12:17;25.50;99.90
18888;DHT22;9576;47.792;9.628;2023-07-13T12:15:20;25.50;99.90
18888;DHT22;9576;47.792;9.628;2023-07-13T12:18:29;25.40;99.90
18888;DHT22;9576;47.792;9.628;2023-07-13T12:21:32;25.30;99.90
18888;DHT22;9576;47.792;9.628;2023-07-13T12:24:36;25.00;99.90
18888;DHT22;9576;47.792;9.628;2023-07-13T12:27:39;24.80;99.90
18888;DHT22;9576;47.792;9.628;2023-07-13T12:30:41;25.00;99.90
18888;DHT22;9576;47.792;9.628;2023-07-13T12:33:43;24.90;99.90
18888;DHT22;9576;47.792;9.628;2023-07-13T12:36:47;25.20;99.90
18888;DHT22;9576;47.792;9.628;2023-07-13T12:39:51;25.30;99.90
18888;DHT22;9576;47.792;9.628;2023-07-13T12:42:53;25.30;99.90
18888;DHT22;9576;47.792;9.628;2023-07-13T12:45:57;25.80;99.90
18888;DHT22;9576;47.792;9.628;2023-07-13T12:48:59;26.30;99.90
18888;DHT22;9576;47.792;9.628;2023-07-13T12:52:03;26.40;99.90
18888;DHT22;9576;47.792;9.628;2023-07-13T12:55:12;25.90;99.90
18888;DHT22;9576;47.792;9.628;2023-07-13T12:58:25;26.00;99.90
18888;DHT22;9576;47.792;9.628;2023-07-13T13:01:28;26.20;99.90
18888;DHT22;9576;47.792;9.628;2023-07-13T13:04:31;26.60;99.90
18888;DHT22;9576;47.792;9.628;2023-07-13T13:07:34;26.60;99.90
18888;DHT22;9576;47.792;9.628;2023-07-13T13:10:38;26.50;99.90
18888;DHT22;9576;47.792;9.628;2023-07-13T13:13:40;26.60;99.90
18888;DHT22;9576;47.792;9.628;2023-07-13T13:16:46;26.90;99.90
18888;DHT22;9576;47.792;9.628;2023-07-13T13:19:50;27.20;99.90
18888;DHT22;9576;47.792;9.628;2023-07-13T13:22:53;27.40;99.90
18888;DHT22;9576;47.792;9.628;2023-07-13T13:25:57;27.30;99.90
18888;DHT22;9576;47.792;9.628;2023-07-13T13:28:59;27.50;99.90
18888;DHT22;9576;47.792;9.628;2023-07-13T13:32:01;27.90;99.90
18888;DHT22;9576;47.792;9.628;2023-07-13T13:35:04;28.20;99.90
18888;DHT22;9576;47.792;9.628;2023-07-13T13:38:10;28.30;99.90
18888;DHT22;9576;47.792;9.628;2023-07-13T13:41:14;28.00;99.90
18888;DHT22;9576;47.792;9.628;2023-07-13T13:44:17;27.70;99.90
18888;DHT22;9576;47.792;9.628;2023-07-13T13:47:30;28.00;99.90
18888;DHT22;9576;47.792;9.628;2023-07-13T13:50:32;28.40;99.90
18888;DHT22;9576;47.792;9.628;2023-07-13T13:53:34;28.80;99.90
18888;DHT22;9576;47.792;9.628;2023-07-13T13:56:38;29.10;99.90
18888;DHT22;9576;47.792;9.628;2023-07-13T13:59:40;29.30;99.90
18888;DHT22;9576;47.792;9.628;2023-07-13T14:02:44;29.70;99.90
18888;DHT22;9576;47.792;9.628;2023-07-13T14:05:48;29.80;99.90
18888;DHT22;9576;47.792;9.628;2023-07-13T14:08:51;30.20;99.90
18888;DHT22;9576;47.792;9.628;2023-07-13T14:11:54;30.20;99.90
18888;DHT22;9576;47.792;9.628;2023-07-13T14:14:56;30.50;99.90
18888;DHT22;9576;47.792;9.628;2023-07-13T14:17:59;30.00;99.90
18888;DHT22;9576;47.792;9.628;2023-07-13T14:21:00;29.20;99.90
18888;DHT22;9576;47.792;9.628;2023-07-13T14:24:02;28.60;99.90
18888;DHT22;9576;47.792;9.628;2023-07-13T14:27:08;28.50;99.90
18888;DHT22;9576;47.792;9.628;2023-07-13T14:30:13;28.70;99.90
18888;DHT22;9576;47.792;9.628;2023-07-13T14:33:16;29.40;99.90
18888;DHT22;9576;47.792;9.628;2023-07-13T14:36:29;29.80;99.90
18888;DHT22;9576;47.792;9.628;2023-07-13T14:39:32;29.90;99.90
18888;DHT22;9576;47.792;9.628;2023-07-13T14:42:35;30.60;99.90
18888;DHT22;9576;47.792;9.628;2023-07-13T14:45:40;30.90;99.90
18888;DHT22;9576;47.792;9.628;2023-07-13T14:48:42;31.10;99.90
18888;DHT22;9576;47.792;9.628;2023-07-13T14:51:44;31.60;99.90
18888;DHT22;9576;47.792;9.628;2023-07-13T14:54:46;31.90;99.90
18888;DHT22;9576;47.792;9.628;2023-07-13T14:57:50;31.70;99.90
18888;DHT22;9576;47.792;9.628;2023-07-13T15:00:52;31.50;99.90
18888;DHT22;9576;47.792;9.628;2023-07-13T15:03:56;32.10;99.90
18888;DHT22;9576;47.792;9.628;2023-07-13T15:07:00;32.20;99.90
18888;DHT22;9576;47.792;9.628;2023-07-13T15:10:11;32.00;99.90
18888;DHT22;9576;47.792;9.628;2023-07-13T15:13:17;32.20;99.90
18888;DHT22;9576;47.792;9.628;2023-07-13T15:16:24;31.60;99.90
18888;DHT22;9576;47.792;9.628;2023-07-13T15:19:26;30.70;99.90
18888;DHT22;9576;47.792;9.628;2023-07-13T15:22:28;30.70;99.90
18888;DHT22;9576;47.792;9.628;2023-07-13T15:25:32;31.30;99.90
18888;DHT22;9576;47.792;9.628;2023-07-13T15:28:36;32.20;99.90
18888;DHT22;9576;47.792;9.628;2023-07-13T15:31:38;32.80;99.90
18888;DHT22;9576;47.792;9.628;2023-07-13T15:34:40;33.20;99.90
18888;DHT22;9576;47.792;9.628;2023-07-13T15:37:43;33.80;99.90
18888;DHT22;9576;47.792;9.628;2023-07-13T15:40:45;34.30;99.90
18888;DHT22;9576;47.792;9.628;2023-07-13T15:43:50;34.70;99.90
18888;DHT22;9576;47.792;9.628;2023-07-13T15:46:53;34.30;98.30
18888;DHT22;9576;47.792;9.628;2023-07-13T15:49:55;33.90;99.30
18888;DHT22;9576;47.792;9.628;2023-07-13T15:52:59;34.00;99.90
18888;DHT22;9576;47.792;9.628;2023-07-13T15:56:16;34.50;98.50
18888;DHT22;9576;47.792;9.628;2023-07-13T15:59:20;35.00;98.70
18888;DHT22;9576;47.792;9.628;2023-07-13T16:02:22;35.00;97.30
18888;DHT22;9576;47.792;9.628;2023-07-13T16:05:24;34.70;97.40
18888;DHT22;9576;47.792;9.628;2023-07-13T16:08:27;34.90;98.90
18888;DHT22;9576;47.792;9.628;2023-07-13T16:11:34;34.80;97.50
18888;DHT22;9576;47.792;9.628;2023-07-13T16:14:38;35.30;95.90
18888;DHT22;9576;47.792;9.628;2023-07-13T16:17:41;35.40;97.70
18888;DHT22;9576;47.792;9.628;2023-07-13T16:20:43;35.90;98.20
18888;DHT22;9576;47.792;9.628;2023-07-13T16:23:45;36.40;95.80
18888;DHT22;9576;47.792;9.628;2023-07-13T16:26:48;36.50;94.60
18888;DHT22;9576;47.792;9.628;2023-07-13T16:29:51;36.00;94.20
18888;DHT22;9576;47.792;9.628;2023-07-13T16:32:53;35.70;94.00
18888;DHT22;9576;47.792;9.628;2023-07-13T16:35:55;35.90;92.70
18888;DHT22;9576;47.792;9.628;2023-07-13T16:38:57;36.30;92.60
18888;DHT22;9576;47.792;9.628;2023-07-13T16:42:01;36.30;92.30
18888;DHT22;9576;47.792;9.628;2023-07-13T16:45:07;36.70;93.60
18888;DHT22;9576;47.792;9.628;2023-07-13T16:48:14;37.20;93.20
18888;DHT22;9576;47.792;9.628;2023-07-13T16:51:17;37.10;92.50
18888;DHT22;9576;47.792;9.628;2023-07-13T16:54:19;36.70;91.30
18888;DHT22;9576;47.792;9.628;2023-07-13T16:57:26;36.30;92.40
18888;DHT22;9576;47.792;9.628;2023-07-13T17:00:33;36.40;94.10
18888;DHT22;9576;47.792;9.628;2023-07-13T17:03:37;36.10;92.70
18888;DHT22;9576;47.792;9.628;2023-07-13T17:06:40;35.50;93.40
18888;DHT22;9576;47.792;9.628;2023-07-13T17:09:42;35.30;94.00
18888;DHT22;9576;47.792;9.628;2023-07-13T17:12:46;35.00;93.20
18888;DHT22;9576;47.792;9.628;2023-07-13T17:15:51;34.80;92.70
18888;DHT22;9576;47.792;9.628;2023-07-13T17:18:56;33.70;92.80
18888;DHT22;9576;47.792;9.628;2023-07-13T17:21:59;32.90;94.20
18888;DHT22;9576;47.792;9.628;2023-07-13T17:25:10;32.80;96.00
18888;DHT22;9576;47.792;9.628;2023-07-13T17:28:14;32.60;95.10
18888;DHT22;9576;47.792;9.628;2023-07-13T17:31:19;32.00;95.20
18888;DHT22;9576;47.792;9.628;2023-07-13T17:34:23;31.70;95.80
18888;DHT22;9576;47.792;9.628;2023-07-13T17:37:25;30.80;97.20
18888;DHT22;9576;47.792;9.628;2023-07-13T17:40:28;29.40;98.50
18888;DHT22;9576;47.792;9.628;2023-07-13T17:43:30;28.70;99.60
18888;DHT22;9576;47.792;9.628;2023-07-13T17:46:34;27.80;99.90
18888;DHT22;9576;47.792;9.628;2023-07-13T17:49:36;27.10;99.90
18888;DHT22;9576;47.792;9.628;2023-07-13T17:52:38;26.70;99.90
18888;DHT22;9576;47.792;9.628;2023-07-13T17:55:40;26.30;99.90
18888;DHT22;9576;47.792;9.628;2023-07-13T17:58:42;26.00;99.90
18888;DHT22;9576;47.792;9.628;2023-07-13T18:01:46;25.80;99.90
18888;DHT22;9576;47.792;9.628;2023-07-13T18:04:48;25.40;99.90
18888;DHT22;9576;47.792;9.628;2023-07-13T18:07:51;25.10;99.90
18888;DHT22;9576;47.792;9.628;2023-07-13T18:10:55;25.00;99.90
18888;DHT22;9576;47.792;9.628;2023-07-13T18:13:57;24.90;99.90
18888;DHT22;9576;47.792;9.628;2023-07-13T18:17:00;24.80;99.90
18888;DHT22;9576;47.792;9.628;2023-07-13T18:20:03;24.70;99.90
18888;DHT22;9576;47.792;9.628;2023-07-13T18:23:16;24.40;99.90
18888;DHT22;9576;47.792;9.628;2023-07-13T18:26:19;24.20;99.90
18888;DHT22;9576;47.792;9.628;2023-07-13T18:29:21;23.90;99.90
18888;DHT22;9576;47.792;9.628;2023-07-13T18:32:25;23.80;99.90
18888;DHT22;9576;47.792;9.628;2023-07-13T18:35:30;23.60;99.90
18888;DHT22;9576;47.792;9.628;2023-07-13T18:38:33;23.50;99.90
18888;DHT22;9576;47.792;9.628;2023-07-13T18:41:37;23.40;99.90
18888;DHT22;9576;47.792;9.628;2023-07-13T18:44:39;23.30;99.90
18888;DHT22;9576;47.792;9.628;2023-07-13T18:47:44;23.20;99.90
18888;DHT22;9576;47.792;9.628;2023-07-13T18:50:46;23.00;99.90
18888;DHT22;9576;47.792;9.628;2023-07-13T18:53:49;22.70;99.90
18888;DHT22;9576;47.792;9.628;2023-07-13T18:56:51;22.40;99.90
18888;DHT22;9576;47.792;9.628;2023-07-13T18:59:53;22.20;99.90
18888;DHT22;9576;47.792;9.628;2023-07-13T19:02:56;22.10;99.90
18888;DHT22;9576;47.792;9.628;2023-07-13T19:05:58;22.00;99.90
18888;DHT22;9576;47.792;9.628;2023-07-13T19:09:00;21.90;99.90
18888;DHT22;9576;47.792;9.628;2023-07-13T19:12:04;21.90;99.90
18888;DHT22;9576;47.792;9.628;2023-07-13T19:15:16;21.80;99.90
18888;DHT22;9576;47.792;9.628;2023-07-13T19:18:21;21.60;99.90
18888;DHT22;9576;47.792;9.628;2023-07-13T19:21:29;21.50;99.90
18888;DHT22;9576;47.792;9.628;2023-07-13T19:24:33;21.40;99.90
18888;DHT22;9576;47.792;9.628;2023-07-13T19:27:35;21.30;99.90
18888;DHT22;9576;47.792;9.628;2023-07-13T19:30:37;21.30;99.90
18888;DHT22;9576;47.792;9.628;2023-07-13T19:33:40;21.20;99.90
18888;DHT22;9576;47.792;9.628;2023-07-13T19:36:42;21.10;99.90
18888;DHT22;9576;47.792;9.628;2023-07-13T19:39:44;21.00;99.90
18888;DHT22;9576;47.792;9.628;2023-07-13T19:42:46;20.80;99.90